createdAt,value
2022-11-03T00:00:04.918Z,14.09
2022-11-03T00:02:09.613Z,14.14
2022-11-03T00:04:13.907Z,14.19
2022-11-03T00:06:15.851Z,14.15
2022-11-03T00:08:17.794Z,14.20
2022-11-03T00:10:19.729Z,14.23
2022-11-03T00:12:21.677Z,14.26
2022-11-03T00:14:23.658Z,14.33
2022-11-03T00:16:25.840Z,14.33
2022-11-03T00:18:27.848Z,14.33
2022-11-03T00:20:29.820Z,14.37
2022-11-03T00:22:33.444Z,14.38
2022-11-03T00:24:35.349Z,14.40
2022-11-03T00:26:38.475Z,14.43
2022-11-03T00:28:43.062Z,14.42
2022-11-03T00:30:45.105Z,14.46
2022-11-03T00:32:47.117Z,14.49
2022-11-03T00:34:49.398Z,14.52
2022-11-03T00:36:51.360Z,14.52
2022-11-03T00:38:53.842Z,14.55
2022-11-03T00:40:57.297Z,14.59
2022-11-03T00:42:59.519Z,14.56
2022-11-03T00:45:01.427Z,14.52
2022-11-03T00:47:03.368Z,14.58
2022-11-03T00:49:05.819Z,14.60
2022-11-03T00:51:11.345Z,14.53
2022-11-03T00:53:13.274Z,14.54
2022-11-03T00:55:15.578Z,14.58
2022-11-03T00:57:17.506Z,14.41
2022-11-03T00:59:19.423Z,14.50
2022-11-03T01:01:25.339Z,14.50
2022-11-03T01:03:27.540Z,14.48
2022-11-03T01:05:32.686Z,14.42
2022-11-03T01:07:34.629Z,14.36
2022-11-03T01:09:38.537Z,14.25
2022-11-03T01:11:43.596Z,14.30
2022-11-03T01:13:46.983Z,14.37
2022-11-03T01:15:48.999Z,14.37
2022-11-03T01:17:51.074Z,14.41
2022-11-03T01:19:53.378Z,14.33
2022-11-03T01:21:55.331Z,14.38
2022-11-03T01:23:57.384Z,14.36
2022-11-03T01:26:05.109Z,14.44
2022-11-03T01:28:07.036Z,14.32
2022-11-03T01:30:09.636Z,14.39
2022-11-03T01:32:12.801Z,14.35
2022-11-03T01:34:17.963Z,14.26
2022-11-03T01:36:20.836Z,14.33
2022-11-03T01:38:22.792Z,14.28
2022-11-03T01:40:24.995Z,14.24
2022-11-03T01:42:26.986Z,14.25
2022-11-03T01:44:35.070Z,14.26
2022-11-03T01:46:43.161Z,14.27
2022-11-03T01:48:50.116Z,14.16
2022-11-03T01:50:52.681Z,14.24
2022-11-03T01:52:58.411Z,14.19
2022-11-03T01:55:04.864Z,14.26
2022-11-03T01:57:14.049Z,14.27
2022-11-03T01:59:18.548Z,14.16
2022-11-03T02:01:21.209Z,14.11
2022-11-03T02:03:24.394Z,14.22
2022-11-03T02:05:27.474Z,14.20
2022-11-03T02:07:40.384Z,14.21
2022-11-03T02:09:42.285Z,14.23
2022-11-03T02:11:53.360Z,14.22
2022-11-03T02:13:55.124Z,14.28
2022-11-03T02:15:59.573Z,14.21
2022-11-03T02:18:03.139Z,14.15
2022-11-03T02:20:11.417Z,14.26
2022-11-03T02:22:27.163Z,14.29
2022-11-03T02:24:39.415Z,14.26
2022-11-03T02:26:44.008Z,14.32
2022-11-03T02:28:45.916Z,14.29
2022-11-03T02:31:07.457Z,14.34
2022-11-03T02:33:24.849Z,14.38
2022-11-03T02:35:31.623Z,14.37
2022-11-03T02:37:37.406Z,14.39
2022-11-03T02:39:45.469Z,14.39
2022-11-03T02:41:49.345Z,14.40
2022-11-03T02:43:52.754Z,14.41
2022-11-03T02:45:55.894Z,14.40
2022-11-03T02:48:01.970Z,14.42
2022-11-03T02:50:08.620Z,14.40
2022-11-03T02:52:33.469Z,14.39
2022-11-03T02:54:40.576Z,14.40
2022-11-03T02:56:50.733Z,14.42
2022-11-03T02:59:03.446Z,14.43
2022-11-03T03:01:15.371Z,14.50
2022-11-03T03:03:25.053Z,14.42
2022-11-03T03:05:32.129Z,14.45
2022-11-03T03:07:40.785Z,14.46
2022-11-03T03:09:51.739Z,14.41
2022-11-03T03:11:58.719Z,14.45
2022-11-03T03:14:00.530Z,14.40
2022-11-03T03:16:17.447Z,14.47
2022-11-03T03:18:24.634Z,14.32
2022-11-03T03:20:33.645Z,14.34
2022-11-03T03:22:43.239Z,14.36
2022-11-03T03:24:51.510Z,14.40
2022-11-03T03:26:59.141Z,14.42
2022-11-03T03:29:08.028Z,14.38
2022-11-03T03:31:14.572Z,14.43
2022-11-03T03:33:18.062Z,14.48
2022-11-03T03:35:25.898Z,14.45
2022-11-03T03:37:29.795Z,14.54
2022-11-03T03:39:36.378Z,14.43
2022-11-03T03:41:39.573Z,14.52
2022-11-03T03:43:42.637Z,14.47
2022-11-03T03:45:46.208Z,14.56
2022-11-03T03:47:48.324Z,14.54
2022-11-03T03:49:50.245Z,14.57
2022-11-03T03:51:52.110Z,14.43
2022-11-03T03:53:55.482Z,14.51
2022-11-03T03:55:58.934Z,14.50
2022-11-03T03:58:00.798Z,14.43
2022-11-03T04:00:02.545Z,14.46
2022-11-03T04:02:04.479Z,14.47
2022-11-03T04:04:06.489Z,14.41
2022-11-03T04:06:09.455Z,14.47
2022-11-03T04:08:12.959Z,14.44
2022-11-03T04:10:17.039Z,14.47
2022-11-03T04:12:28.737Z,14.50
2022-11-03T04:14:40.849Z,14.54
2022-11-03T04:16:52.680Z,14.60
2022-11-03T04:19:04.609Z,14.62
2022-11-03T04:21:19.663Z,14.55
2022-11-03T04:23:21.489Z,14.57
2022-11-03T04:25:23.379Z,14.58
2022-11-03T04:27:34.683Z,14.69
2022-11-03T04:29:36.460Z,14.75
2022-11-03T04:31:39.141Z,14.73
2022-11-03T04:33:41.845Z,14.86
2022-11-03T04:35:44.869Z,14.86
2022-11-03T04:37:51.783Z,14.77
2022-11-03T04:39:59.511Z,14.83
2022-11-03T04:42:01.352Z,14.89
2022-11-03T04:44:10.937Z,14.88
2022-11-03T04:46:16.044Z,14.91
2022-11-03T04:48:22.554Z,14.95
2022-11-03T04:50:24.652Z,14.98
2022-11-03T04:52:26.429Z,15.00
2022-11-03T04:54:28.334Z,15.01
2022-11-03T04:56:30.564Z,15.04
2022-11-03T04:58:35.739Z,15.08
2022-11-03T05:00:37.494Z,15.04
2022-11-03T05:02:39.349Z,15.05
2022-11-03T05:04:42.244Z,15.00
2022-11-03T05:06:51.798Z,15.02
2022-11-03T05:08:56.807Z,14.99
2022-11-03T05:11:00.449Z,15.00
2022-11-03T05:13:02.326Z,15.00
2022-11-03T05:15:21.765Z,14.99
2022-11-03T05:17:26.910Z,14.98
2022-11-03T05:19:34.189Z,15.01
2022-11-03T05:21:36.004Z,14.99
2022-11-03T05:23:41.091Z,15.01
2022-11-03T05:25:45.794Z,14.99
2022-11-03T05:27:47.664Z,14.97
2022-11-03T05:29:53.963Z,15.00
2022-11-03T05:31:58.554Z,14.99
2022-11-03T05:34:02.601Z,14.92
2022-11-03T05:36:13.975Z,14.95
2022-11-03T05:38:20.039Z,14.87
2022-11-03T05:40:25.789Z,14.88
2022-11-03T05:42:34.243Z,14.72
2022-11-03T05:44:37.963Z,14.77
2022-11-03T05:46:39.830Z,14.77
2022-11-03T05:48:44.952Z,14.68
2022-11-03T05:50:46.831Z,14.67
2022-11-03T05:52:51.637Z,14.58
2022-11-03T05:54:58.735Z,14.54
2022-11-03T05:57:01.641Z,14.50
2022-11-03T05:59:05.395Z,14.49
2022-11-03T06:01:16.950Z,14.38
2022-11-03T06:03:25.609Z,14.38
2022-11-03T06:05:28.059Z,14.35
2022-11-03T06:07:31.728Z,14.30
2022-11-03T06:09:34.106Z,14.31
2022-11-03T06:11:37.488Z,14.22
2022-11-03T06:13:39.989Z,14.19
2022-11-03T06:15:46.091Z,14.15
2022-11-03T06:17:47.904Z,14.09
2022-11-03T06:19:52.618Z,14.00
2022-11-03T06:21:58.391Z,14.04
2022-11-03T06:24:00.315Z,14.02
2022-11-03T06:26:04.040Z,13.94
2022-11-03T06:28:11.875Z,14.02
2022-11-03T06:30:31.355Z,13.93
2022-11-03T06:32:34.164Z,13.98
2022-11-03T06:34:39.335Z,13.99
2022-11-03T06:36:41.219Z,13.92
2022-11-03T06:38:46.971Z,13.82
2022-11-03T06:40:52.823Z,13.88
2022-11-03T06:42:55.919Z,13.90
2022-11-03T06:44:57.702Z,13.87
2022-11-03T06:47:07.087Z,13.88
2022-11-03T06:49:28.409Z,13.85
2022-11-03T06:51:31.005Z,13.84
2022-11-03T06:53:33.966Z,13.91
2022-11-03T06:55:38.776Z,13.86
2022-11-03T06:57:43.536Z,13.82
2022-11-03T06:59:46.028Z,13.81
2022-11-03T07:01:55.401Z,13.83
2022-11-03T07:04:01.486Z,13.81
2022-11-03T07:06:18.986Z,13.77
2022-11-03T07:08:25.001Z,13.78
2022-11-03T07:10:29.919Z,13.78
2022-11-03T07:12:31.953Z,13.77
2022-11-03T07:14:34.314Z,13.75
2022-11-03T07:16:41.975Z,13.74
2022-11-03T07:18:45.435Z,13.75
2022-11-03T07:20:49.013Z,13.73
2022-11-03T07:22:53.055Z,13.73
2022-11-03T07:25:00.234Z,13.75
2022-11-03T07:27:20.738Z,13.72
2022-11-03T07:29:26.497Z,13.70
2022-11-03T07:31:28.745Z,13.71
2022-11-03T07:33:32.274Z,13.75
2022-11-03T07:36:08.541Z,13.76
2022-11-03T07:38:04.233Z,13.73
2022-11-03T07:40:13.977Z,13.70
2022-11-03T07:42:20.251Z,13.72
2022-11-03T07:44:22.434Z,13.71
2022-11-03T07:46:25.705Z,13.62
2022-11-03T07:48:43.745Z,13.66
2022-11-03T07:50:46.505Z,13.67
2022-11-03T07:52:48.604Z,13.62
2022-11-03T07:54:53.668Z,13.56
2022-11-03T07:56:58.656Z,13.52
2022-11-03T07:59:05.477Z,13.44
2022-11-03T08:01:23.096Z,13.45
2022-11-03T08:03:36.196Z,13.38
2022-11-03T08:05:38.445Z,13.42
2022-11-03T08:07:40.416Z,13.41
2022-11-03T08:09:42.487Z,13.36
2022-11-03T08:11:45.244Z,13.37
2022-11-03T08:13:47.230Z,13.29
2022-11-03T08:15:49.169Z,13.30
2022-11-03T08:17:56.025Z,13.28
2022-11-03T08:19:58.327Z,13.34
2022-11-03T08:22:00.488Z,13.34
2022-11-03T08:24:02.694Z,13.38
2022-11-03T08:26:05.025Z,13.40
2022-11-03T08:28:07.177Z,13.42
2022-11-03T08:30:10.314Z,13.41
2022-11-03T08:32:12.235Z,13.41
2022-11-03T08:34:14.327Z,13.35
2022-11-03T08:36:16.358Z,13.31
2022-11-03T08:38:18.324Z,13.35
2022-11-03T08:40:20.526Z,13.35
2022-11-03T08:42:22.457Z,13.14
2022-11-03T08:44:24.563Z,13.22
2022-11-03T08:46:26.527Z,13.21
2022-11-03T08:48:29.006Z,13.15
2022-11-03T08:50:31.153Z,13.12
2022-11-03T08:52:33.316Z,13.15
2022-11-03T08:54:35.560Z,13.22
2022-11-03T08:56:37.691Z,13.18
2022-11-03T08:58:39.755Z,13.25
2022-11-03T09:00:41.998Z,13.20
2022-11-03T09:02:45.394Z,13.21
2022-11-03T09:04:47.473Z,13.21
2022-11-03T09:06:49.686Z,13.19
2022-11-03T09:11:13.847Z,13.13
2022-11-03T09:13:16.378Z,13.12
2022-11-03T09:15:18.815Z,13.14
2022-11-03T09:17:20.894Z,13.14
2022-11-03T09:19:23.282Z,13.21
2022-11-03T09:21:25.317Z,13.14
2022-11-03T09:23:27.455Z,13.20
2022-11-03T09:25:29.534Z,13.20
2022-11-03T09:27:32.026Z,13.10
2022-11-03T09:29:58.642Z,13.12
2022-11-03T09:31:56.095Z,13.09
2022-11-03T09:33:58.132Z,13.14
2022-11-03T09:36:00.383Z,13.13
2022-11-03T09:38:02.357Z,13.19
2022-11-03T09:40:05.005Z,13.20
2022-11-03T09:42:07.728Z,13.19
2022-11-03T09:44:10.678Z,13.21
2022-11-03T09:46:13.805Z,13.18
2022-11-03T09:48:15.864Z,13.23
2022-11-03T09:50:20.446Z,13.26
2022-11-03T09:52:25.322Z,13.21
2022-11-03T09:54:28.406Z,13.23
2022-11-03T09:56:31.595Z,13.18
2022-11-03T09:58:33.766Z,13.14
2022-11-03T10:00:35.934Z,13.21
2022-11-03T10:02:40.076Z,13.19
2022-11-03T10:04:42.113Z,13.17
2022-11-03T10:06:44.256Z,13.21
2022-11-03T10:08:47.566Z,13.16
2022-11-03T10:10:51.624Z,13.20
2022-11-03T10:12:53.856Z,13.29
2022-11-03T10:14:56.241Z,13.37
2022-11-03T10:17:00.916Z,13.34
2022-11-03T10:19:03.446Z,13.33
2022-11-03T10:21:18.654Z,13.23
2022-11-03T10:23:20.615Z,13.27
2022-11-03T10:25:35.915Z,13.31
2022-11-03T10:27:37.847Z,13.32
2022-11-03T10:29:41.309Z,13.36
2022-11-03T10:31:51.023Z,13.28
2022-11-03T10:33:55.443Z,13.38
2022-11-03T10:35:59.587Z,13.44
2022-11-03T10:38:20.880Z,13.50
2022-11-03T10:40:47.757Z,13.54
2022-11-03T10:42:59.839Z,13.54
2022-11-03T10:45:18.824Z,13.55
2022-11-03T10:47:26.087Z,13.61
2022-11-03T10:49:30.796Z,13.62
2022-11-03T10:51:34.782Z,13.64
2022-11-03T10:53:36.907Z,13.68
2022-11-03T10:55:41.509Z,13.64
2022-11-03T10:57:44.928Z,13.66
2022-11-03T10:59:49.988Z,13.68
2022-11-03T11:01:52.105Z,13.67
2022-11-03T11:03:55.553Z,13.70
2022-11-03T11:05:57.704Z,13.70
2022-11-03T11:08:00.067Z,13.74
2022-11-03T11:10:15.824Z,13.76
2022-11-03T11:12:23.003Z,13.76
2022-11-03T11:14:28.570Z,13.78
2022-11-03T11:16:48.205Z,13.80
2022-11-03T11:18:51.895Z,13.76
2022-11-03T11:20:54.786Z,13.77
2022-11-03T11:23:25.531Z,13.74
2022-11-03T11:25:56.832Z,13.76
2022-11-03T11:27:58.919Z,13.77
2022-11-03T11:30:02.445Z,13.73
2022-11-03T11:32:33.839Z,13.74
2022-11-03T11:34:36.724Z,13.76
2022-11-03T11:36:41.208Z,13.73
2022-11-03T11:38:55.917Z,13.74
2022-11-03T11:40:58.011Z,13.73
2022-11-03T11:43:04.834Z,13.71
2022-11-03T11:45:07.543Z,13.74
2022-11-03T11:47:22.115Z,13.75
2022-11-03T11:49:24.287Z,13.74
2022-11-03T11:51:26.636Z,13.72
2022-11-03T11:53:33.863Z,13.72
2022-11-03T11:55:49.363Z,13.80
2022-11-03T11:57:53.082Z,13.86
2022-11-03T11:59:55.456Z,13.90
2022-11-03T12:02:12.051Z,13.96
2022-11-03T12:04:20.834Z,13.96
2022-11-03T12:06:40.994Z,14.01
2022-11-03T12:08:43.758Z,14.03
2022-11-03T12:10:54.511Z,13.99
2022-11-03T12:12:57.045Z,14.07
2022-11-03T12:14:59.659Z,14.06
2022-11-03T12:17:22.851Z,14.04
2022-11-03T12:19:36.355Z,14.07
2022-11-03T12:21:49.007Z,14.02
2022-11-03T12:23:51.178Z,14.03
2022-11-03T12:25:53.382Z,14.04
2022-11-03T12:27:55.865Z,14.07
2022-11-03T12:29:59.973Z,13.96
2022-11-03T12:32:02.327Z,14.01
2022-11-03T12:34:04.461Z,14.06
2022-11-03T12:36:08.940Z,14.01
2022-11-03T12:38:11.054Z,14.07
2022-11-03T12:40:15.031Z,14.07
2022-11-03T12:42:17.184Z,14.09
2022-11-03T12:44:19.291Z,14.10
2022-11-03T12:46:22.608Z,13.99
2022-11-03T12:48:24.847Z,14.06
2022-11-03T12:50:27.784Z,14.09
2022-11-03T12:52:29.994Z,14.09
2022-11-03T12:54:32.904Z,14.15
2022-11-03T12:56:35.347Z,14.12
2022-11-03T12:58:37.956Z,14.09
2022-11-03T13:00:40.151Z,13.89
2022-11-03T13:02:42.582Z,14.00
2022-11-03T13:04:45.024Z,13.98
2022-11-03T13:06:47.115Z,13.86
2022-11-03T13:08:53.157Z,13.83
2022-11-03T13:10:55.511Z,13.90
2022-11-03T13:12:57.983Z,13.89
2022-11-03T13:15:03.541Z,13.79
2022-11-03T13:17:05.610Z,13.86
2022-11-03T13:19:10.160Z,13.84
2022-11-03T13:21:13.694Z,13.83
2022-11-03T13:23:18.750Z,13.89
2022-11-03T13:25:25.487Z,13.88
2022-11-03T13:27:27.693Z,13.88
2022-11-03T13:29:34.947Z,13.75
2022-11-03T13:31:37.855Z,13.90
2022-11-03T13:33:40.365Z,13.91
2022-11-03T13:35:42.630Z,13.89
2022-11-03T13:37:45.728Z,13.85
2022-11-03T13:39:48.277Z,13.90
2022-11-03T13:41:50.733Z,13.87
2022-11-03T13:43:53.159Z,13.82
2022-11-03T13:45:58.799Z,13.88
2022-11-03T13:50:24.405Z,13.72
2022-11-03T13:52:28.755Z,13.54
2022-11-03T13:59:30.816Z,13.70
2022-11-03T14:01:33.962Z,13.70
2022-11-03T14:05:58.477Z,13.74
2022-11-03T14:08:00.778Z,13.80
2022-11-03T14:10:04.610Z,13.75
2022-11-03T14:12:16.397Z,13.75
2022-11-03T14:14:18.644Z,13.78
2022-11-03T14:16:20.663Z,13.87
2022-11-03T14:18:22.978Z,13.92
2022-11-03T14:20:25.167Z,13.89
2022-11-03T14:22:27.385Z,14.02
2022-11-03T14:24:29.444Z,14.08
2022-11-03T14:26:46.141Z,14.13
2022-11-03T14:28:48.546Z,14.22
2022-11-03T14:30:50.698Z,14.30
2022-11-03T14:32:56.852Z,14.43
2022-11-03T14:35:01.789Z,14.57
2022-11-03T14:37:05.320Z,14.71
2022-11-03T14:39:07.640Z,14.89
2022-11-03T14:41:19.607Z,15.06
2022-11-03T14:43:21.774Z,15.19
2022-11-03T14:45:24.141Z,15.23
2022-11-03T14:47:26.349Z,15.09
2022-11-03T14:49:29.437Z,15.06
2022-11-03T14:51:32.093Z,15.07
2022-11-03T14:53:34.548Z,15.06
2022-11-03T14:55:36.776Z,15.00
2022-11-03T14:57:38.991Z,14.84
2022-11-03T14:59:41.272Z,14.88
2022-11-03T15:01:43.714Z,14.84
2022-11-03T15:03:46.406Z,14.67
2022-11-03T15:05:49.295Z,14.62
2022-11-03T15:07:51.867Z,14.55
2022-11-03T15:09:54.542Z,14.57
2022-11-03T15:11:57.728Z,14.51
2022-11-03T15:14:00.094Z,14.57
2022-11-03T15:16:03.073Z,14.48
2022-11-03T15:18:05.494Z,14.26
2022-11-03T15:20:09.612Z,14.31
2022-11-03T15:22:12.819Z,14.22
2022-11-03T15:26:37.655Z,14.19
2022-11-03T15:28:43.078Z,14.19
2022-11-03T15:30:45.771Z,14.26
2022-11-03T15:32:48.394Z,14.14
2022-11-03T15:34:50.840Z,14.06
2022-11-03T15:36:53.554Z,14.08
2022-11-03T15:38:55.919Z,13.97
2022-11-03T15:41:16.040Z,14.06
2022-11-03T15:43:19.106Z,14.08
2022-11-03T15:45:21.510Z,14.08
2022-11-03T15:47:24.195Z,14.10
2022-11-03T15:49:26.722Z,14.17
2022-11-03T15:51:29.330Z,14.24
2022-11-03T15:53:31.489Z,14.21
2022-11-03T15:55:33.888Z,14.12
2022-11-03T15:57:36.262Z,14.06
2022-11-03T15:59:39.512Z,14.10
2022-11-03T16:01:41.907Z,14.06
2022-11-03T16:03:44.268Z,14.06
2022-11-03T16:05:46.719Z,14.06
2022-11-03T16:07:49.249Z,14.14
2022-11-03T16:09:52.073Z,14.06
2022-11-03T16:11:54.700Z,14.05
2022-11-03T16:13:57.475Z,14.04
2022-11-03T16:15:59.984Z,14.06
2022-11-03T16:18:03.172Z,13.88
2022-11-03T16:20:06.386Z,14.00
2022-11-03T16:22:08.913Z,14.01
2022-11-03T16:24:11.957Z,13.94
2022-11-03T16:26:14.524Z,13.90
2022-11-03T16:28:17.048Z,13.89
2022-11-03T16:30:20.598Z,13.84
2022-11-03T16:32:23.226Z,13.86
2022-11-03T16:34:25.988Z,13.88
2022-11-03T16:36:28.371Z,13.85
2022-11-03T16:38:31.050Z,13.86
2022-11-03T16:40:33.483Z,13.88
2022-11-03T16:42:38.830Z,13.83
2022-11-03T16:44:41.302Z,13.84
2022-11-03T16:46:43.950Z,13.86
2022-11-03T16:48:46.331Z,13.81
2022-11-03T16:50:51.547Z,13.71
2022-11-03T16:52:57.338Z,13.81
2022-11-03T16:55:01.441Z,13.81
2022-11-03T16:57:04.179Z,13.78
2022-11-03T16:59:06.758Z,13.80
2022-11-03T17:01:09.595Z,13.80
2022-11-03T17:03:12.206Z,13.76
2022-11-03T17:05:17.087Z,13.76
2022-11-03T17:07:19.912Z,13.76
2022-11-03T17:09:22.442Z,13.68
2022-11-03T17:11:36.019Z,13.68
2022-11-03T17:13:38.799Z,13.63
2022-11-03T17:15:41.409Z,13.56
2022-11-03T17:17:44.375Z,13.57
2022-11-03T17:19:47.191Z,13.53
2022-11-03T17:21:49.823Z,13.48
2022-11-03T17:23:53.107Z,13.47
2022-11-03T17:25:57.065Z,13.45
2022-11-03T17:28:02.646Z,13.49
2022-11-03T17:30:09.237Z,13.47
2022-11-03T17:32:24.499Z,13.44
2022-11-03T17:34:30.607Z,13.44
2022-11-03T17:36:33.259Z,13.37
2022-11-03T17:38:35.812Z,13.45
2022-11-03T17:40:38.680Z,13.43
2022-11-03T17:42:41.490Z,13.39
2022-11-03T17:44:49.291Z,13.43
2022-11-03T17:46:51.875Z,13.36
2022-11-03T17:48:55.569Z,13.34
2022-11-03T17:50:58.624Z,13.34
2022-11-03T17:53:02.519Z,13.38
2022-11-03T17:55:16.389Z,13.35
2022-11-03T17:57:22.608Z,13.35
2022-11-03T17:59:25.277Z,13.33
2022-11-03T18:01:28.247Z,13.18
2022-11-03T18:03:31.439Z,13.25
2022-11-03T18:05:34.069Z,13.14
2022-11-03T18:07:36.776Z,13.15
2022-11-03T18:09:42.798Z,13.12
2022-11-03T18:11:56.718Z,13.16
2022-11-03T18:14:00.319Z,13.15
2022-11-03T18:16:09.523Z,13.14
2022-11-03T18:18:25.898Z,13.13
2022-11-03T18:20:31.335Z,13.13
2022-11-03T18:22:33.992Z,13.10
2022-11-03T18:24:36.608Z,13.14
2022-11-03T18:26:39.311Z,13.14
2022-11-03T18:28:42.012Z,13.07
2022-11-03T18:30:48.053Z,13.13
2022-11-03T18:32:50.927Z,13.03
2022-11-03T18:34:53.817Z,13.06
2022-11-03T18:36:56.414Z,13.10
2022-11-03T18:39:00.466Z,13.08
2022-11-03T18:41:03.329Z,13.05
2022-11-03T18:43:14.164Z,13.07
2022-11-03T18:45:17.654Z,13.12
2022-11-03T18:47:20.545Z,12.99
2022-11-03T18:49:24.897Z,13.03
2022-11-03T18:51:28.038Z,13.04
2022-11-03T18:53:30.613Z,12.94
2022-11-03T18:55:33.663Z,12.96
2022-11-03T18:57:37.648Z,12.90
2022-11-03T18:59:45.347Z,12.85
2022-11-03T19:01:51.382Z,12.83
2022-11-03T19:03:57.649Z,12.78
2022-11-03T19:06:00.530Z,12.80
2022-11-03T19:08:03.521Z,12.86
2022-11-03T19:10:10.310Z,12.93
2022-11-03T19:12:15.912Z,12.84
2022-11-03T19:14:29.684Z,12.77
2022-11-03T19:16:33.689Z,12.86
2022-11-03T19:18:36.707Z,12.84
2022-11-03T19:20:39.658Z,12.77
2022-11-03T19:22:42.211Z,12.73
2022-11-03T19:24:46.116Z,12.66
2022-11-03T19:27:01.078Z,12.60
2022-11-03T19:29:10.931Z,12.60
2022-11-03T19:31:26.036Z,12.64
2022-11-03T19:33:31.339Z,12.49
2022-11-03T19:35:35.747Z,12.55
2022-11-03T19:37:38.179Z,12.55
2022-11-03T19:39:41.592Z,12.52
2022-11-03T19:41:53.408Z,12.53
2022-11-03T19:43:55.668Z,12.51
2022-11-03T19:45:58.366Z,12.54
2022-11-03T19:50:27.488Z,12.39
2022-11-03T19:52:31.959Z,12.44
2022-11-03T19:54:34.669Z,12.33
2022-11-03T19:56:36.928Z,12.45
2022-11-03T19:58:39.475Z,12.34
2022-11-03T20:00:42.528Z,12.20
2022-11-03T20:02:45.233Z,12.14
2022-11-03T20:04:47.760Z,12.17
2022-11-03T20:06:50.034Z,12.15
2022-11-03T20:08:53.735Z,12.19
2022-11-03T20:10:56.291Z,12.15
2022-11-03T20:12:59.157Z,12.14
2022-11-03T20:15:01.719Z,12.14
2022-11-03T20:17:14.895Z,12.06
2022-11-03T20:19:17.365Z,12.11
2022-11-03T20:21:22.617Z,12.06
2022-11-03T20:23:27.776Z,12.05
2022-11-03T20:25:35.396Z,12.10
2022-11-03T20:27:37.883Z,12.09
2022-11-03T20:29:40.562Z,12.14
2022-11-03T20:31:45.276Z,12.13
2022-11-03T20:33:48.168Z,12.04
2022-11-03T20:35:53.795Z,12.10
2022-11-03T20:37:59.427Z,12.09
2022-11-03T20:40:01.858Z,12.13
2022-11-03T20:42:04.723Z,12.21
2022-11-03T20:44:07.265Z,12.26
2022-11-03T20:46:22.508Z,12.30
2022-11-03T20:48:25.052Z,12.29
2022-11-03T20:50:30.622Z,12.34
2022-11-03T20:52:33.230Z,12.34
2022-11-03T20:54:35.631Z,12.41
2022-11-03T20:56:38.337Z,12.43
2022-11-03T20:58:40.972Z,12.43
2022-11-03T21:00:45.253Z,12.46
2022-11-03T21:02:49.458Z,12.51
2022-11-03T21:04:52.080Z,12.50
2022-11-03T21:06:54.737Z,12.54
2022-11-03T21:09:00.426Z,12.58
2022-11-03T21:11:22.806Z,12.61
2022-11-03T21:13:25.430Z,12.64
2022-11-03T21:15:37.468Z,12.67
2022-11-03T21:17:49.437Z,12.68
2022-11-03T21:20:00.157Z,12.70
2022-11-03T21:22:02.768Z,12.70
2022-11-03T21:24:06.846Z,12.67
2022-11-03T21:26:13.531Z,12.72
2022-11-03T21:28:17.327Z,12.69
2022-11-03T21:30:20.278Z,12.70
2022-11-03T21:32:23.811Z,12.71
2022-11-03T21:34:26.911Z,12.75
2022-11-03T21:36:29.397Z,12.60
2022-11-03T21:38:31.665Z,12.59
2022-11-03T21:40:34.534Z,12.54
2022-11-03T21:42:46.453Z,12.55
2022-11-03T21:44:49.076Z,12.53
2022-11-03T21:46:51.703Z,12.60
2022-11-03T21:49:03.766Z,12.50
2022-11-03T21:51:06.431Z,12.55
2022-11-03T21:53:09.006Z,12.48
2022-11-03T21:55:11.789Z,12.45
2022-11-03T21:57:15.789Z,12.42
2022-11-03T21:59:18.206Z,12.49
2022-11-03T22:01:20.460Z,12.41
2022-11-03T22:03:23.207Z,12.32
2022-11-03T22:05:26.689Z,12.30
2022-11-03T22:07:32.987Z,12.30
2022-11-03T22:09:35.217Z,12.32
2022-11-03T22:11:37.370Z,12.34
2022-11-03T22:13:39.609Z,12.36
2022-11-03T22:15:51.450Z,12.34
2022-11-03T22:18:00.140Z,12.32
2022-11-03T22:20:11.436Z,12.28
2022-11-03T22:22:24.406Z,12.19
2022-11-03T22:24:36.428Z,12.24
2022-11-03T22:26:48.845Z,12.22
2022-11-03T22:29:10.847Z,12.24
2022-11-03T22:31:22.499Z,12.21
2022-11-03T22:33:26.899Z,12.25
2022-11-03T22:35:38.398Z,12.25
2022-11-03T22:37:40.605Z,12.27
2022-11-03T22:39:52.405Z,12.28
2022-11-03T22:42:06.626Z,12.32
2022-11-03T22:44:18.638Z,12.33
2022-11-03T22:46:21.176Z,12.35
2022-11-03T22:48:26.149Z,12.37
2022-11-03T22:50:28.397Z,12.39
2022-11-03T22:52:30.401Z,12.40
2022-11-03T22:54:32.432Z,12.41
2022-11-03T22:56:34.576Z,12.44
2022-11-03T22:58:36.735Z,12.47
2022-11-03T23:00:40.502Z,12.49
2022-11-03T23:02:42.829Z,12.49
2022-11-03T23:04:46.490Z,12.55
2022-11-03T23:06:48.767Z,12.59
2022-11-03T23:08:52.279Z,12.60
2022-11-03T23:10:54.437Z,12.64
2022-11-03T23:12:56.468Z,12.68
2022-11-03T23:15:08.428Z,12.64
2022-11-03T23:17:10.500Z,12.65
2022-11-03T23:19:24.556Z,12.68
2022-11-03T23:21:28.556Z,12.66
2022-11-03T23:23:40.724Z,12.67
2022-11-03T23:25:42.668Z,12.66
2022-11-03T23:27:44.743Z,12.65
2022-11-03T23:29:46.799Z,12.60
2022-11-03T23:31:49.046Z,12.54
2022-11-03T23:33:51.165Z,12.59
2022-11-03T23:35:53.638Z,12.56
2022-11-03T23:37:55.637Z,12.57
2022-11-03T23:39:57.652Z,12.52
2022-11-03T23:41:59.558Z,12.54
2022-11-03T23:44:01.487Z,12.55
2022-11-03T23:46:13.688Z,12.44
2022-11-03T23:48:25.667Z,12.48
2022-11-03T23:50:27.843Z,12.46
2022-11-03T23:52:29.857Z,12.39
2022-11-03T23:54:31.947Z,12.42
2022-11-03T23:56:46.666Z,12.49
2022-11-03T23:58:49.837Z,12.49
